Rutledge, MO (63563)

1:16 PM CST on February 11, 2016 (GMT -0600)
Cedar Kahoka | | Change Station
CLOSE
Current Station
Personal Weather Station
Location: Kahoka, MO
Elevation: 705 ft
Nearby Weather Stations

Elev 705 ft 40.42 °N, 91.73 °W | Updated 2 minutes ago

Clear
Clear
25.9 °F
Feels Like 26 °F
N
0.0
Wind Variable Wind from SSW

Today
High -- | Low -- °F
--% Chance of Precip.
Yesterday
High -- | Low -- °F
Precip. -- in
Pressure 30.37 in
Visibility 10.0 miles
Clouds Clear
Windchill 26 °F
Dew Point 10 °F
Humidity 51%
Rainfall 0.00 in
Snow Depth Not available.
7:07 AM 5:38 PM
Waxing Crescent, 14% visible
METAR KIRK 111855Z AUTO 09003KT 10SM CLR M06/M15 A3031 RMK AO2 SLP283 T10561150
Pressure 30.37 in
Visibility 10.0 miles
Clouds Clear
Windchill 26 °F
Dew Point 10 °F
Humidity 51%
Rainfall 0.00 in
Snow Depth Not available.
7:07 AM 5:38 PM
Waxing Crescent, 14% visible
METAR KIRK 111855Z AUTO 09003KT 10SM CLR M06/M15 A3031 RMK AO2 SLP283 T10561150

10-Day Weather Forecast

Almanac

Astronomy

Feb. 11, 2016 Rise Set
Actual Time
Civil Twilight
Nautical Twilight
Astronomical Twilight
Moon
Length of Visible Light
Length of Day
Tomorrow will be .
, % of the Moon is Illuminated

Today's Extremes

State Highs State Lows

Community

WunderPhotos

Upload Photos

1,892,141 photos uploaded!

WunderBlog® & News

Nearby

Air Quality

  Air Quality AQ Index Pollutant
Not available.

Snow Depth

Station Depth Elevation

Earthquake Activity

City Distance Mag. Time & Date
Minimum magnitude displayed is 2.5.

Coastal Water Temperatures

Place Temperature

Stations

Nearby Weather Stations

Station Location Temp. Windchill Dew Point Humidity Wind Precip. Elev Updated Type
                   

Watches & Warnings

There are currently no watches in effect.